createdAt,value
2024-03-02T00:02:11.173Z,10.20
2024-03-02T00:04:38.203Z,9.50
2024-03-02T00:07:05.239Z,9.28
2024-03-02T00:09:32.327Z,9.83
2024-03-02T00:12:00.443Z,9.98
2024-03-02T00:14:30.889Z,10.37
2024-03-02T00:16:57.811Z,8.38
2024-03-02T00:19:28.638Z,9.13
2024-03-02T00:21:56.050Z,8.77
2024-03-02T00:24:33.061Z,8.45
2024-03-02T00:27:00.094Z,8.78
2024-03-02T00:29:27.610Z,8.71
2024-03-02T00:31:54.700Z,10.39
2024-03-02T00:34:22.771Z,9.43
2024-03-02T00:36:51.386Z,11.24
2024-03-02T00:39:18.431Z,9.96
2024-03-02T00:41:46.464Z,9.38
2024-03-02T00:44:16.168Z,8.91
2024-03-02T00:46:46.335Z,11.19
2024-03-02T00:49:19.150Z,10.42
2024-03-02T00:51:47.352Z,9.57
2024-03-02T00:54:14.884Z,10.61
2024-03-02T00:56:47.717Z,9.68
2024-03-02T00:59:19.916Z,10.45
2024-03-02T01:01:47.306Z,12.23
2024-03-02T01:04:14.350Z,9.93
2024-03-02T01:06:41.756Z,10.92
2024-03-02T01:09:08.773Z,9.75
2024-03-02T01:11:38.932Z,10.41
2024-03-02T01:14:06.387Z,10.79
2024-03-02T01:16:33.339Z,11.65
2024-03-02T01:19:00.455Z,9.20
2024-03-02T01:21:27.550Z,10.12
2024-03-02T01:23:54.486Z,11.76
2024-03-02T01:26:21.402Z,10.77
2024-03-02T01:28:48.339Z,9.21
2024-03-02T01:31:15.271Z,9.93
2024-03-02T01:33:43.811Z,11.16
2024-03-02T01:36:12.791Z,11.98
2024-03-02T01:38:40.001Z,11.82
2024-03-02T01:41:07.000Z,11.06
2024-03-02T01:43:33.948Z,12.19
2024-03-02T01:46:02.891Z,11.19
2024-03-02T01:48:30.191Z,11.71
2024-03-02T01:50:58.180Z,11.72
2024-03-02T01:53:25.235Z,10.71
2024-03-02T01:55:52.176Z,10.18
2024-03-02T01:58:19.425Z,9.84
2024-03-02T02:00:46.437Z,11.07
2024-03-02T02:03:13.477Z,10.68
2024-03-02T02:05:40.769Z,9.79
2024-03-02T02:08:08.123Z,9.85
2024-03-02T02:10:35.082Z,10.13
2024-03-02T02:13:02.178Z,10.62
2024-03-02T02:15:32.687Z,9.88
2024-03-02T02:18:00.945Z,9.74
2024-03-02T02:20:30.529Z,9.69
2024-03-02T02:23:01.328Z,12.19
2024-03-02T02:25:29.071Z,9.60
2024-03-02T02:27:56.531Z,9.82
2024-03-02T02:30:25.476Z,10.41
2024-03-02T02:32:53.247Z,10.51
2024-03-02T02:35:20.244Z,9.53
2024-03-02T02:37:51.605Z,9.95
2024-03-02T02:40:20.112Z,9.87
2024-03-02T02:42:47.424Z,11.63
2024-03-02T02:45:14.775Z,8.59
2024-03-02T02:47:43.705Z,10.57
2024-03-02T02:50:12.192Z,8.47
2024-03-02T02:52:40.308Z,8.83
2024-03-02T02:55:11.029Z,9.81
2024-03-02T02:57:38.931Z,9.83
2024-03-02T03:00:14.304Z,9.24
2024-03-02T03:02:42.302Z,9.05
2024-03-02T03:05:14.088Z,9.13
2024-03-02T03:07:41.740Z,10.45
2024-03-02T03:10:08.962Z,9.05
2024-03-02T03:12:36.950Z,8.65
2024-03-02T03:15:05.930Z,10.30
2024-03-02T03:17:33.102Z,9.05
2024-03-02T03:20:02.063Z,8.90
2024-03-02T03:22:29.455Z,10.72
2024-03-02T03:24:56.929Z,9.41
2024-03-02T03:27:23.986Z,9.18
2024-03-02T03:29:50.976Z,9.27
2024-03-02T03:32:21.334Z,10.17
2024-03-02T03:34:54.344Z,9.49
2024-03-02T03:37:22.869Z,10.23
2024-03-02T03:39:52.059Z,9.60
2024-03-02T03:42:20.076Z,10.13
2024-03-02T03:44:47.025Z,11.22
2024-03-02T03:47:14.412Z,11.97
2024-03-02T03:49:41.359Z,8.41
2024-03-02T03:52:10.000Z,8.17
2024-03-02T03:54:36.980Z,8.10
2024-03-02T03:57:03.983Z,7.27
2024-03-02T03:59:31.068Z,7.60
2024-03-02T04:01:58.057Z,10.99
2024-03-02T04:04:25.404Z,7.49
2024-03-02T04:06:52.662Z,7.86
2024-03-02T04:09:20.037Z,7.02
2024-03-02T04:11:47.466Z,6.72
2024-03-02T04:14:14.446Z,7.15
2024-03-02T04:16:42.348Z,7.49
2024-03-02T04:19:09.278Z,7.93
2024-03-02T04:21:37.251Z,8.17
2024-03-02T04:24:05.810Z,6.56
2024-03-02T04:26:32.786Z,7.49
2024-03-02T04:28:59.718Z,6.88
2024-03-02T04:31:26.671Z,7.47
2024-03-02T04:33:54.373Z,7.55
2024-03-02T04:36:22.392Z,7.98
2024-03-02T04:38:50.820Z,6.28
2024-03-02T04:41:17.961Z,6.59
2024-03-02T04:43:44.885Z,6.83
2024-03-02T04:46:13.837Z,6.84
2024-03-02T04:48:40.848Z,6.28
2024-03-02T04:51:07.825Z,6.57
2024-03-02T04:53:36.976Z,6.61
2024-03-02T04:56:04.056Z,8.79
2024-03-02T04:58:31.693Z,6.79
2024-03-02T05:00:58.725Z,6.68
2024-03-02T05:03:25.803Z,8.72
2024-03-02T05:05:52.867Z,7.53
2024-03-02T05:08:19.868Z,7.25
2024-03-02T05:10:47.356Z,8.64
2024-03-02T05:13:15.413Z,7.43
2024-03-02T05:15:43.037Z,8.99
2024-03-02T05:18:11.114Z,7.95
2024-03-02T05:20:38.129Z,8.07
2024-03-02T05:23:07.543Z,8.04
2024-03-02T05:25:34.536Z,10.16
2024-03-02T05:28:01.737Z,8.57
2024-03-02T05:30:28.801Z,12.76
2024-03-02T05:32:56.170Z,8.36
2024-03-02T05:35:23.154Z,9.36
2024-03-02T05:37:53.834Z,8.73
2024-03-02T05:40:24.456Z,8.76
2024-03-02T05:42:52.720Z,8.28
2024-03-02T05:45:19.960Z,9.05
2024-03-02T05:47:47.283Z,8.75
2024-03-02T05:50:16.796Z,8.83
2024-03-02T05:52:43.709Z,8.08
2024-03-02T05:55:10.782Z,8.12
2024-03-02T05:57:40.349Z,8.79
2024-03-02T06:00:08.228Z,8.39
2024-03-02T06:02:37.656Z,8.69
2024-03-02T06:05:08.575Z,9.01
2024-03-02T06:07:35.511Z,8.27
2024-03-02T06:10:09.055Z,7.61
2024-03-02T06:12:37.202Z,8.61
2024-03-02T06:15:04.439Z,7.61
2024-03-02T06:17:31.378Z,8.66
2024-03-02T06:19:58.312Z,8.72
2024-03-02T06:22:25.597Z,7.85
2024-03-02T06:24:55.460Z,8.37
2024-03-02T06:27:24.302Z,8.20
2024-03-02T06:29:54.910Z,9.34
2024-03-02T06:32:22.210Z,8.84
2024-03-02T06:34:52.354Z,9.73
2024-03-02T06:37:22.234Z,8.61
2024-03-02T06:39:49.476Z,9.78
2024-03-02T06:42:16.897Z,9.13
2024-03-02T06:44:48.355Z,10.03
2024-03-02T06:47:15.275Z,8.23
2024-03-02T06:49:42.199Z,9.12
2024-03-02T06:52:09.240Z,7.36
2024-03-02T06:54:38.078Z,7.72
2024-03-02T06:57:05.579Z,10.36
2024-03-02T06:59:32.501Z,7.56
2024-03-02T07:01:59.491Z,8.96
2024-03-02T07:04:26.536Z,9.17
2024-03-02T07:06:53.504Z,7.95
2024-03-02T07:09:21.851Z,8.17
2024-03-02T07:11:50.464Z,8.77
2024-03-02T07:14:21.682Z,8.32
2024-03-02T07:16:48.741Z,7.75
2024-03-02T07:19:15.828Z,8.07
2024-03-02T07:21:42.928Z,8.38
2024-03-02T07:24:09.887Z,8.78
2024-03-02T07:29:06.644Z,7.32
2024-03-02T07:31:33.691Z,6.94
2024-03-02T07:34:02.267Z,8.26
2024-03-02T07:36:30.281Z,7.04
2024-03-02T07:38:57.299Z,6.43
2024-03-02T07:41:24.246Z,6.84
2024-03-02T07:43:51.150Z,7.99
2024-03-02T07:46:18.166Z,6.54
2024-03-02T07:48:47.161Z,7.30
2024-03-02T07:51:14.294Z,11.37
2024-03-02T07:53:41.557Z,6.61
2024-03-02T07:56:09.702Z,8.41
2024-03-02T07:58:36.902Z,6.95
2024-03-02T08:01:04.071Z,8.11
2024-03-02T08:03:31.982Z,8.74
2024-03-02T08:05:59.976Z,9.46
2024-03-02T08:08:26.949Z,7.81
2024-03-02T08:10:55.496Z,7.43
2024-03-02T08:13:22.459Z,7.17
2024-03-02T08:15:51.030Z,7.04
2024-03-02T08:18:18.038Z,8.26
2024-03-02T08:20:45.000Z,7.23
2024-03-02T08:23:12.948Z,8.01
2024-03-02T08:25:39.993Z,8.59
2024-03-02T08:28:07.228Z,8.30
2024-03-02T08:30:37.248Z,8.46
2024-03-02T08:33:04.399Z,10.83
2024-03-02T08:35:37.579Z,10.10
2024-03-02T08:38:05.775Z,8.65
2024-03-02T08:40:35.249Z,7.35
2024-03-02T08:43:02.228Z,8.35
2024-03-02T08:45:29.172Z,8.96
2024-03-02T08:47:57.920Z,8.09
2024-03-02T08:50:27.594Z,21.15
2024-03-02T08:52:57.365Z,12.31
2024-03-02T08:55:27.340Z,9.56
2024-03-02T08:57:57.697Z,11.23
2024-03-02T09:00:24.954Z,7.61
2024-03-02T09:02:52.216Z,5.94
2024-03-02T09:05:19.178Z,8.01
2024-03-02T09:07:50.130Z,13.60
2024-03-02T09:10:16.940Z,10.35
2024-03-02T09:12:45.016Z,6.38
2024-03-02T09:15:11.829Z,5.95
2024-03-02T09:17:38.599Z,5.93
2024-03-02T09:20:06.449Z,5.60
2024-03-02T09:22:34.184Z,4.52
2024-03-02T09:25:01.396Z,6.31
2024-03-02T09:27:28.188Z,5.30
2024-03-02T09:29:55.351Z,4.92
2024-03-02T09:32:22.211Z,3.97
2024-03-02T09:34:49.038Z,4.72
2024-03-02T09:37:15.952Z,5.35
2024-03-02T09:39:44.864Z,5.03
2024-03-02T09:42:11.836Z,6.07
2024-03-02T09:45:03.444Z,5.14
2024-03-02T09:47:35.836Z,7.58
2024-03-02T09:50:08.764Z,7.38
2024-03-02T09:52:45.918Z,10.44
2024-03-02T09:55:12.994Z,5.15
2024-03-02T09:57:42.433Z,11.55
2024-03-02T10:00:14.594Z,35.33
2024-03-02T10:02:46.394Z,66.37
2024-03-02T10:05:24.263Z,25.90
2024-03-02T10:08:01.603Z,9.03
2024-03-02T10:10:47.585Z,7.18
2024-03-02T10:13:17.225Z,7.75
2024-03-02T10:15:44.394Z,7.20
2024-03-02T10:18:11.962Z,7.77
2024-03-02T10:20:39.418Z,3.76
2024-03-02T10:23:15.791Z,3.40
2024-03-02T10:25:51.217Z,4.01
2024-03-02T10:28:22.324Z,4.36
2024-03-02T10:30:49.409Z,4.16
2024-03-02T10:33:16.785Z,4.84
2024-03-02T10:35:46.471Z,6.60
2024-03-02T10:38:14.349Z,4.94
2024-03-02T10:40:41.299Z,5.91
2024-03-02T10:43:08.251Z,4.52
2024-03-02T10:45:35.223Z,4.54
2024-03-02T10:48:03.289Z,4.43
2024-03-02T10:50:31.058Z,5.43
2024-03-02T10:53:00.231Z,5.24
2024-03-02T10:55:27.382Z,4.97
2024-03-02T10:57:55.610Z,4.92
2024-03-02T11:00:24.118Z,5.09
2024-03-02T11:02:57.558Z,4.92
2024-03-02T11:05:33.825Z,4.63
2024-03-02T11:08:08.152Z,3.95
2024-03-02T11:10:37.849Z,3.23
2024-03-02T11:13:10.243Z,2.51
2024-03-02T11:15:40.183Z,4.02
2024-03-02T11:18:10.637Z,3.27
2024-03-02T11:20:41.187Z,4.44
2024-03-02T11:23:11.522Z,3.40
2024-03-02T11:25:38.989Z,4.57
2024-03-02T11:28:09.309Z,10.01
2024-03-02T11:30:37.279Z,5.28
2024-03-02T11:33:04.588Z,6.23
2024-03-02T11:35:31.536Z,6.16
2024-03-02T11:37:58.488Z,4.82
2024-03-02T11:40:28.865Z,6.71
2024-03-02T11:42:56.404Z,7.24
2024-03-02T11:45:27.177Z,7.86
2024-03-02T11:48:00.604Z,9.72
2024-03-02T11:50:41.736Z,10.65
2024-03-02T11:53:09.844Z,11.77
2024-03-02T11:55:38.703Z,10.02
2024-03-02T11:58:05.689Z,9.40
2024-03-02T12:00:35.405Z,13.93
2024-03-02T12:03:05.026Z,10.52
2024-03-02T12:05:32.032Z,19.96
2024-03-02T12:07:59.806Z,11.73
2024-03-02T12:10:27.281Z,14.63
2024-03-02T12:13:04.828Z,16.04
2024-03-02T12:15:33.755Z,11.28
2024-03-02T12:18:01.543Z,13.19
2024-03-02T12:20:29.312Z,12.58
2024-03-02T12:22:57.422Z,14.76
2024-03-02T12:25:24.721Z,13.84
2024-03-02T12:27:53.503Z,16.76
2024-03-02T12:30:20.640Z,14.83
2024-03-02T12:32:47.681Z,15.17
2024-03-02T12:35:17.849Z,15.06
2024-03-02T12:37:48.009Z,14.38
2024-03-02T12:40:15.809Z,19.65
2024-03-02T12:42:42.895Z,17.01
2024-03-02T12:45:09.997Z,13.38
2024-03-02T12:47:37.188Z,14.88
2024-03-02T12:50:07.498Z,14.38
2024-03-02T12:52:36.355Z,15.59
2024-03-02T12:55:06.950Z,17.19
2024-03-02T12:57:34.774Z,17.65
2024-03-02T13:00:05.820Z,11.80
2024-03-02T13:02:35.823Z,15.56
2024-03-02T13:05:02.802Z,17.53
2024-03-02T13:07:30.242Z,14.52
2024-03-02T13:09:57.323Z,14.62
2024-03-02T13:12:25.446Z,13.87
2024-03-02T13:14:55.513Z,16.07
2024-03-02T13:17:22.504Z,13.63
2024-03-02T13:20:02.101Z,14.51
2024-03-02T13:22:29.404Z,14.35
2024-03-02T13:24:56.372Z,13.14
2024-03-02T13:27:23.440Z,13.51
2024-03-02T13:29:50.454Z,13.86
2024-03-02T13:32:18.708Z,14.17
2024-03-02T13:34:48.741Z,12.64
2024-03-02T13:37:15.680Z,9.69
2024-03-02T13:39:42.635Z,5.74
2024-03-02T13:42:09.890Z,5.92
2024-03-02T13:44:36.964Z,6.43
2024-03-02T13:47:04.659Z,8.64
2024-03-02T13:49:33.532Z,9.70
2024-03-02T13:52:05.272Z,6.62
2024-03-02T13:54:37.490Z,6.39
2024-03-02T13:57:04.452Z,7.79
2024-03-02T13:59:31.404Z,6.42
2024-03-02T14:01:58.501Z,6.38
2024-03-02T14:04:26.011Z,6.21
2024-03-02T14:06:52.996Z,6.81
2024-03-02T14:09:20.062Z,7.20
2024-03-02T14:11:47.205Z,7.29
2024-03-02T14:14:17.103Z,6.26
2024-03-02T14:16:45.617Z,7.87
2024-03-02T14:19:13.012Z,6.99
2024-03-02T14:21:42.837Z,8.66
2024-03-02T14:24:09.802Z,7.31
2024-03-02T14:26:37.008Z,7.14
2024-03-02T14:29:06.503Z,7.44
2024-03-02T14:31:33.606Z,5.72
2024-03-02T14:34:01.856Z,6.73
2024-03-02T14:39:20.568Z,5.28
2024-03-02T14:41:47.523Z,5.81
2024-03-02T14:44:17.315Z,6.45
2024-03-02T14:46:45.801Z,6.53
2024-03-02T14:49:12.720Z,6.65
2024-03-02T14:51:39.720Z,5.98
2024-03-02T14:54:06.680Z,5.62
2024-03-02T14:56:33.653Z,6.19
2024-03-02T14:59:00.930Z,6.75
2024-03-02T15:01:28.357Z,6.93
2024-03-02T15:03:55.559Z,6.69
2024-03-02T15:06:25.649Z,6.57
2024-03-02T15:08:55.759Z,6.94
2024-03-02T15:11:24.693Z,7.86
2024-03-02T15:13:51.640Z,8.01
2024-03-02T15:16:18.641Z,6.44
2024-03-02T15:18:45.594Z,6.60
2024-03-02T15:21:13.999Z,6.66
2024-03-02T15:23:40.944Z,6.45
2024-03-02T15:26:10.417Z,6.34
2024-03-02T15:28:38.383Z,7.50
2024-03-02T15:31:05.325Z,6.46
2024-03-02T15:33:32.565Z,7.03
2024-03-02T15:36:00.300Z,7.28
2024-03-02T15:38:33.377Z,7.76
2024-03-02T15:41:02.267Z,7.94
2024-03-02T15:43:29.240Z,7.89
2024-03-02T15:45:56.582Z,8.78
2024-03-02T15:48:23.537Z,7.73
2024-03-02T15:50:50.734Z,7.48
2024-03-02T15:53:19.885Z,7.04
2024-03-02T15:55:46.836Z,7.22
2024-03-02T15:58:13.830Z,7.00
2024-03-02T16:00:43.021Z,7.96
2024-03-02T16:03:10.385Z,7.88
2024-03-02T16:05:37.514Z,8.45
2024-03-02T16:08:04.689Z,8.01
2024-03-02T16:10:31.687Z,7.49
2024-03-02T16:12:59.163Z,7.63
2024-03-02T16:15:30.009Z,7.49
2024-03-02T16:17:59.790Z,7.81
2024-03-02T16:20:39.006Z,9.60
2024-03-02T16:23:05.975Z,15.05
2024-03-02T16:25:32.903Z,8.34
2024-03-02T16:27:59.876Z,7.64
2024-03-02T16:30:27.296Z,8.62
2024-03-02T16:32:54.358Z,9.47
2024-03-02T16:35:21.288Z,9.09
2024-03-02T16:37:48.224Z,8.32
2024-03-02T16:40:15.691Z,7.80
2024-03-02T16:42:42.818Z,9.69
2024-03-02T16:45:10.171Z,8.04
2024-03-02T16:47:43.092Z,9.66
2024-03-02T16:50:11.357Z,9.30
2024-03-02T16:52:38.353Z,8.67
2024-03-02T16:55:05.810Z,9.64
2024-03-02T16:57:33.211Z,11.11
2024-03-02T17:00:00.313Z,9.72
2024-03-02T17:02:28.009Z,9.46
2024-03-02T17:04:55.420Z,10.28
2024-03-02T17:07:22.385Z,9.75
2024-03-02T17:09:50.694Z,11.29
2024-03-02T17:12:17.843Z,9.55
2024-03-02T17:14:44.758Z,8.88
2024-03-02T17:17:13.654Z,9.53
2024-03-02T17:19:40.603Z,9.99
2024-03-02T17:22:07.858Z,9.00
2024-03-02T17:24:35.413Z,9.13
2024-03-02T17:27:02.337Z,10.03
2024-03-02T17:29:29.647Z,9.94
2024-03-02T17:31:56.693Z,9.30
2024-03-02T17:34:23.700Z,8.98
2024-03-02T17:36:50.987Z,10.95
2024-03-02T17:39:17.950Z,9.03
2024-03-02T17:41:44.870Z,8.47
2024-03-02T17:44:15.077Z,8.75
2024-03-02T17:46:44.802Z,10.08
2024-03-02T17:49:11.802Z,9.29
2024-03-02T17:51:38.803Z,10.79
2024-03-02T17:54:05.763Z,13.32
2024-03-02T17:56:32.743Z,11.67
2024-03-02T17:58:59.735Z,14.40
2024-03-02T18:01:28.299Z,11.12
2024-03-02T18:03:56.122Z,12.87
2024-03-02T18:06:23.186Z,12.92
2024-03-02T18:08:53.096Z,12.19
2024-03-02T18:11:21.671Z,12.20
2024-03-02T18:13:48.714Z,14.34
2024-03-02T18:16:16.191Z,15.31
2024-03-02T18:18:43.252Z,18.85
2024-03-02T18:21:10.284Z,17.74
2024-03-02T18:23:38.714Z,16.14
2024-03-02T18:26:05.846Z,15.76
2024-03-02T18:28:33.362Z,13.99
2024-03-02T18:31:00.470Z,12.83
2024-03-02T18:33:27.629Z,11.83
2024-03-02T18:35:57.433Z,12.65
2024-03-02T18:38:26.941Z,12.30
2024-03-02T18:41:01.745Z,11.51
2024-03-02T18:43:28.703Z,12.69
2024-03-02T18:45:55.746Z,11.93
2024-03-02T18:48:22.807Z,12.82
2024-03-02T18:50:52.621Z,17.41
2024-03-02T18:53:19.656Z,15.17
2024-03-02T18:55:48.084Z,16.95
2024-03-02T18:58:15.094Z,26.00
2024-03-02T19:00:43.843Z,34.60
2024-03-02T19:03:11.461Z,31.40
2024-03-02T19:05:38.547Z,25.44
2024-03-02T19:08:06.127Z,19.97
2024-03-02T19:10:33.870Z,17.48
2024-03-02T19:13:00.865Z,15.99
2024-03-02T19:15:30.439Z,18.08
2024-03-02T19:18:18.309Z,18.68
2024-03-02T19:20:45.289Z,21.19
2024-03-02T19:23:18.485Z,19.56
2024-03-02T19:40:37.335Z,112.16
2024-03-02T19:43:09.098Z,96.51
2024-03-02T19:45:36.230Z,17.17
2024-03-02T19:48:03.304Z,17.23
2024-03-02T19:50:30.363Z,15.95
2024-03-02T19:52:57.332Z,13.34
2024-03-02T19:55:24.312Z,11.96
2024-03-02T19:57:51.328Z,11.17
2024-03-02T20:00:18.723Z,11.60
2024-03-02T20:02:45.753Z,12.32
2024-03-02T20:05:12.706Z,11.98
2024-03-02T20:07:42.192Z,9.55
2024-03-02T20:10:09.681Z,10.34
2024-03-02T20:12:38.787Z,10.58
2024-03-02T20:15:06.094Z,11.47
2024-03-02T20:17:34.273Z,12.16
2024-03-02T20:20:01.270Z,11.74
2024-03-02T20:22:28.192Z,10.90
2024-03-02T20:24:55.160Z,10.25
2024-03-02T20:27:22.504Z,12.39
2024-03-02T20:29:51.403Z,13.75
2024-03-02T20:32:20.023Z,14.49
2024-03-02T20:34:46.963Z,13.34
2024-03-02T20:37:14.100Z,11.22
2024-03-02T20:39:41.666Z,11.35
2024-03-02T20:42:08.650Z,11.08
2024-03-02T20:44:35.585Z,9.16
2024-03-02T20:47:02.603Z,10.34
2024-03-02T20:49:31.834Z,9.61
2024-03-02T20:51:59.137Z,11.05
2024-03-02T20:54:25.974Z,10.43
2024-03-02T20:56:55.493Z,12.69
2024-03-02T20:59:22.307Z,11.70
2024-03-02T21:01:50.957Z,11.49
2024-03-02T21:04:17.951Z,10.71
2024-03-02T21:06:44.919Z,11.27
2024-03-02T21:09:11.904Z,10.63
2024-03-02T21:11:38.714Z,11.80
2024-03-02T21:14:05.498Z,10.65
2024-03-02T21:16:32.401Z,12.47
2024-03-02T21:18:59.562Z,13.95
2024-03-02T21:21:26.393Z,15.58
2024-03-02T21:23:54.634Z,14.73
2024-03-02T21:26:21.400Z,14.80
2024-03-02T21:28:48.162Z,14.52
2024-03-02T21:31:17.847Z,13.22
2024-03-02T21:33:44.798Z,16.32
2024-03-02T21:36:11.614Z,19.11
2024-03-02T21:38:38.626Z,19.11
2024-03-02T21:41:05.428Z,18.36
2024-03-02T21:43:32.186Z,28.35
2024-03-02T21:46:00.997Z,28.68
2024-03-02T21:48:28.009Z,27.56
2024-03-02T21:50:54.946Z,22.68
2024-03-02T21:53:30.526Z,17.02
2024-03-02T21:55:57.504Z,14.99
2024-03-02T21:58:24.660Z,14.87
2024-03-02T22:00:51.699Z,16.61
2024-03-02T22:03:18.840Z,20.62
2024-03-02T22:05:45.656Z,21.88
2024-03-02T22:08:12.564Z,17.00
2024-03-02T22:10:39.374Z,18.58
2024-03-02T22:13:06.251Z,16.79
2024-03-02T22:15:33.123Z,14.75
2024-03-02T22:18:02.471Z,15.26
2024-03-02T22:20:29.521Z,18.53
2024-03-02T22:22:58.001Z,13.42
2024-03-02T22:25:24.791Z,13.17
2024-03-02T22:27:51.608Z,14.00
2024-03-02T22:30:18.776Z,13.22
2024-03-02T22:32:45.739Z,13.51
2024-03-02T22:35:12.885Z,14.43
2024-03-02T22:37:39.715Z,14.73
2024-03-02T22:40:09.180Z,13.13
2024-03-02T22:42:36.122Z,13.68
2024-03-02T22:45:02.943Z,11.67
2024-03-02T22:47:29.772Z,13.22
2024-03-02T22:49:59.280Z,13.37
2024-03-02T22:52:26.290Z,16.27
2024-03-02T22:54:54.655Z,15.81
2024-03-02T22:57:21.479Z,15.82
2024-03-02T22:59:51.419Z,14.12
2024-03-02T23:02:18.484Z,13.83
2024-03-02T23:04:45.768Z,14.81
2024-03-02T23:07:15.152Z,15.14
2024-03-02T23:09:42.159Z,13.91
2024-03-02T23:12:11.833Z,14.37
2024-03-02T23:14:38.772Z,12.31
2024-03-02T23:17:06.954Z,13.12
2024-03-02T23:19:34.050Z,11.25
2024-03-02T23:22:03.996Z,12.50
2024-03-02T23:24:30.966Z,11.34
2024-03-02T23:26:58.157Z,12.44
2024-03-02T23:29:31.132Z,13.36
2024-03-02T23:31:58.461Z,11.03
2024-03-02T23:34:26.452Z,12.66
2024-03-02T23:36:53.830Z,12.22
2024-03-02T23:39:20.849Z,11.61
2024-03-02T23:41:47.787Z,14.83
2024-03-02T23:44:14.740Z,12.54
2024-03-02T23:46:43.554Z,14.42
2024-03-02T23:49:10.605Z,14.40
2024-03-02T23:51:37.599Z,13.46
2024-03-02T23:54:04.664Z,15.07
2024-03-02T23:56:32.141Z,20.31
2024-03-02T23:59:00.111Z,15.90
